sensor_id;sensor_type;location;lat;lon;timestamp;temperature;humidity
5176;DHT22;2607;50.934;6.934;2022-10-16T00:01:13;15.20;99.90
5176;DHT22;2607;50.934;6.934;2022-10-16T00:03:41;15.20;99.90
5176;DHT22;2607;50.934;6.934;2022-10-16T00:06:07;15.20;99.90
5176;DHT22;2607;50.934;6.934;2022-10-16T00:08:34;15.20;99.90
5176;DHT22;2607;50.934;6.934;2022-10-16T00:11:09;15.20;99.90
5176;DHT22;2607;50.934;6.934;2022-10-16T00:13:36;15.20;99.90
5176;DHT22;2607;50.934;6.934;2022-10-16T00:16:03;15.10;99.90
5176;DHT22;2607;50.934;6.934;2022-10-16T00:18:29;15.10;99.90
5176;DHT22;2607;50.934;6.934;2022-10-16T00:21:00;15.10;99.90
5176;DHT22;2607;50.934;6.934;2022-10-16T00:23:26;15.10;99.90
5176;DHT22;2607;50.934;6.934;2022-10-16T00:25:59;15.10;99.90
5176;DHT22;2607;50.934;6.934;2022-10-16T00:28:25;15.10;99.90
5176;DHT22;2607;50.934;6.934;2022-10-16T00:30:51;15.10;99.90
5176;DHT22;2607;50.934;6.934;2022-10-16T00:33:17;15.10;99.90
5176;DHT22;2607;50.934;6.934;2022-10-16T00:35:42;15.10;99.90
5176;DHT22;2607;50.934;6.934;2022-10-16T00:38:09;15.10;99.90
5176;DHT22;2607;50.934;6.934;2022-10-16T00:40:34;15.10;99.90
5176;DHT22;2607;50.934;6.934;2022-10-16T00:43:00;15.00;99.90
5176;DHT22;2607;50.934;6.934;2022-10-16T00:45:25;15.00;99.90
5176;DHT22;2607;50.934;6.934;2022-10-16T00:47:52;15.00;99.90
5176;DHT22;2607;50.934;6.934;2022-10-16T00:50:28;15.00;99.90
5176;DHT22;2607;50.934;6.934;2022-10-16T00:52:56;15.00;99.90
5176;DHT22;2607;50.934;6.934;2022-10-16T00:55:22;15.00;99.90
5176;DHT22;2607;50.934;6.934;2022-10-16T00:57:48;15.00;99.90
5176;DHT22;2607;50.934;6.934;2022-10-16T01:00:18;15.00;99.90
5176;DHT22;2607;50.934;6.934;2022-10-16T01:02:43;15.00;99.90
5176;DHT22;2607;50.934;6.934;2022-10-16T01:05:09;15.00;99.90
5176;DHT22;2607;50.934;6.934;2022-10-16T01:07:44;15.00;99.90
5176;DHT22;2607;50.934;6.934;2022-10-16T01:13:13;14.90;99.90
5176;DHT22;2607;50.934;6.934;2022-10-16T01:15:56;14.90;99.90
5176;DHT22;2607;50.934;6.934;2022-10-16T01:18:37;14.90;99.90
5176;DHT22;2607;50.934;6.934;2022-10-16T01:21:20;14.90;99.90
5176;DHT22;2607;50.934;6.934;2022-10-16T01:32:40;14.90;99.90
5176;DHT22;2607;50.934;6.934;2022-10-16T01:35:14;14.90;99.90
5176;DHT22;2607;50.934;6.934;2022-10-16T01:38:38;14.90;99.90
5176;DHT22;2607;50.934;6.934;2022-10-16T01:40:48;14.90;99.90
5176;DHT22;2607;50.934;6.934;2022-10-16T01:43:18;14.90;99.90
5176;DHT22;2607;50.934;6.934;2022-10-16T01:45:45;14.90;99.90
5176;DHT22;2607;50.934;6.934;2022-10-16T01:48:17;14.90;99.90
5176;DHT22;2607;50.934;6.934;2022-10-16T01:50:57;14.80;99.90
5176;DHT22;2607;50.934;6.934;2022-10-16T01:53:24;14.80;99.90
5176;DHT22;2607;50.934;6.934;2022-10-16T01:55:52;14.80;99.90
5176;DHT22;2607;50.934;6.934;2022-10-16T01:58:20;14.80;99.90
5176;DHT22;2607;50.934;6.934;2022-10-16T02:00:46;14.80;99.90
5176;DHT22;2607;50.934;6.934;2022-10-16T02:03:16;14.80;99.90
5176;DHT22;2607;50.934;6.934;2022-10-16T02:05:52;14.80;99.90
5176;DHT22;2607;50.934;6.934;2022-10-16T02:08:20;14.80;99.90
5176;DHT22;2607;50.934;6.934;2022-10-16T02:10:46;14.80;99.90
5176;DHT22;2607;50.934;6.934;2022-10-16T02:13:22;14.80;99.90
5176;DHT22;2607;50.934;6.934;2022-10-16T02:15:49;14.80;99.90
5176;DHT22;2607;50.934;6.934;2022-10-16T02:18:15;14.80;99.90
5176;DHT22;2607;50.934;6.934;2022-10-16T02:20:49;14.90;99.90
5176;DHT22;2607;50.934;6.934;2022-10-16T02:23:22;14.90;99.90
5176;DHT22;2607;50.934;6.934;2022-10-16T02:25:50;14.90;99.90
5176;DHT22;2607;50.934;6.934;2022-10-16T02:28:24;14.90;99.90
5176;DHT22;2607;50.934;6.934;2022-10-16T02:30:58;14.90;99.90
5176;DHT22;2607;50.934;6.934;2022-10-16T02:33:25;14.90;99.90
5176;DHT22;2607;50.934;6.934;2022-10-16T02:35:52;14.90;99.90
5176;DHT22;2607;50.934;6.934;2022-10-16T02:38:20;14.90;99.90
5176;DHT22;2607;50.934;6.934;2022-10-16T02:40:46;14.90;99.90
5176;DHT22;2607;50.934;6.934;2022-10-16T02:43:12;14.90;99.90
5176;DHT22;2607;50.934;6.934;2022-10-16T02:45:38;14.90;99.90
5176;DHT22;2607;50.934;6.934;2022-10-16T02:48:04;14.90;99.90
5176;DHT22;2607;50.934;6.934;2022-10-16T02:50:29;14.90;99.90
5176;DHT22;2607;50.934;6.934;2022-10-16T02:52:55;14.90;99.90
5176;DHT22;2607;50.934;6.934;2022-10-16T02:55:20;14.90;99.90
5176;DHT22;2607;50.934;6.934;2022-10-16T02:57:46;14.90;99.90
5176;DHT22;2607;50.934;6.934;2022-10-16T03:00:14;14.90;99.90
5176;DHT22;2607;50.934;6.934;2022-10-16T03:02:40;14.90;99.90
5176;DHT22;2607;50.934;6.934;2022-10-16T03:05:06;14.90;99.90
5176;DHT22;2607;50.934;6.934;2022-10-16T03:07:31;14.90;99.90
5176;DHT22;2607;50.934;6.934;2022-10-16T03:09:57;14.90;99.90
5176;DHT22;2607;50.934;6.934;2022-10-16T03:12:26;14.90;99.90
5176;DHT22;2607;50.934;6.934;2022-10-16T03:14:51;14.90;99.90
5176;DHT22;2607;50.934;6.934;2022-10-16T03:17:17;14.80;99.90
5176;DHT22;2607;50.934;6.934;2022-10-16T03:19:43;14.80;99.90
5176;DHT22;2607;50.934;6.934;2022-10-16T03:22:08;14.80;99.90
5176;DHT22;2607;50.934;6.934;2022-10-16T03:24:34;14.80;99.90
5176;DHT22;2607;50.934;6.934;2022-10-16T03:26:59;14.80;99.90
5176;DHT22;2607;50.934;6.934;2022-10-16T03:29:25;14.70;99.90
5176;DHT22;2607;50.934;6.934;2022-10-16T03:31:51;14.70;99.90
5176;DHT22;2607;50.934;6.934;2022-10-16T03:34:16;14.70;99.90
5176;DHT22;2607;50.934;6.934;2022-10-16T03:36:42;14.70;99.90
5176;DHT22;2607;50.934;6.934;2022-10-16T03:39:08;14.70;99.90
5176;DHT22;2607;50.934;6.934;2022-10-16T03:41:33;14.70;99.90
5176;DHT22;2607;50.934;6.934;2022-10-16T03:43:59;14.70;99.90
5176;DHT22;2607;50.934;6.934;2022-10-16T03:46:24;14.70;99.90
5176;DHT22;2607;50.934;6.934;2022-10-16T03:48:50;14.70;99.90
5176;DHT22;2607;50.934;6.934;2022-10-16T03:51:15;14.70;99.90
5176;DHT22;2607;50.934;6.934;2022-10-16T03:53:41;14.70;99.90
5176;DHT22;2607;50.934;6.934;2022-10-16T03:56:06;14.70;99.90
5176;DHT22;2607;50.934;6.934;2022-10-16T03:58:32;14.70;99.90
5176;DHT22;2607;50.934;6.934;2022-10-16T04:00:57;14.70;99.90
5176;DHT22;2607;50.934;6.934;2022-10-16T04:03:23;14.80;99.90
5176;DHT22;2607;50.934;6.934;2022-10-16T04:05:49;14.80;99.90
5176;DHT22;2607;50.934;6.934;2022-10-16T04:08:15;14.80;99.90
5176;DHT22;2607;50.934;6.934;2022-10-16T04:10:42;14.80;99.90
5176;DHT22;2607;50.934;6.934;2022-10-16T04:13:08;14.80;99.90
5176;DHT22;2607;50.934;6.934;2022-10-16T04:15:34;14.80;99.90
5176;DHT22;2607;50.934;6.934;2022-10-16T04:18:00;14.80;99.90
5176;DHT22;2607;50.934;6.934;2022-10-16T04:20:25;14.80;99.90
5176;DHT22;2607;50.934;6.934;2022-10-16T04:22:51;14.80;99.90
5176;DHT22;2607;50.934;6.934;2022-10-16T04:25:16;14.80;99.90
5176;DHT22;2607;50.934;6.934;2022-10-16T04:27:42;14.80;99.90
5176;DHT22;2607;50.934;6.934;2022-10-16T04:30:08;14.80;99.90
5176;DHT22;2607;50.934;6.934;2022-10-16T04:32:33;14.80;99.90
5176;DHT22;2607;50.934;6.934;2022-10-16T04:34:59;14.80;99.90
5176;DHT22;2607;50.934;6.934;2022-10-16T04:37:25;14.80;99.90
5176;DHT22;2607;50.934;6.934;2022-10-16T04:39:52;14.80;99.90
5176;DHT22;2607;50.934;6.934;2022-10-16T04:42:17;14.80;99.90
5176;DHT22;2607;50.934;6.934;2022-10-16T04:44:43;14.80;99.90
5176;DHT22;2607;50.934;6.934;2022-10-16T04:47:08;14.80;99.90
5176;DHT22;2607;50.934;6.934;2022-10-16T04:49:34;14.80;99.90
5176;DHT22;2607;50.934;6.934;2022-10-16T04:51:59;14.80;99.90
5176;DHT22;2607;50.934;6.934;2022-10-16T04:54:25;14.80;99.90
5176;DHT22;2607;50.934;6.934;2022-10-16T04:56:50;14.80;99.90
5176;DHT22;2607;50.934;6.934;2022-10-16T04:59:19;14.80;99.90
5176;DHT22;2607;50.934;6.934;2022-10-16T05:01:44;14.80;99.90
5176;DHT22;2607;50.934;6.934;2022-10-16T05:04:10;14.80;99.90
5176;DHT22;2607;50.934;6.934;2022-10-16T05:06:36;14.80;99.90
5176;DHT22;2607;50.934;6.934;2022-10-16T05:09:02;14.80;99.90
5176;DHT22;2607;50.934;6.934;2022-10-16T05:11:29;14.80;99.90
5176;DHT22;2607;50.934;6.934;2022-10-16T05:13:55;14.80;99.90
5176;DHT22;2607;50.934;6.934;2022-10-16T05:16:20;14.80;99.90
5176;DHT22;2607;50.934;6.934;2022-10-16T05:18:46;14.80;99.90
5176;DHT22;2607;50.934;6.934;2022-10-16T05:21:11;14.80;99.90
5176;DHT22;2607;50.934;6.934;2022-10-16T05:23:37;14.90;99.90
5176;DHT22;2607;50.934;6.934;2022-10-16T05:26:03;14.90;99.90
5176;DHT22;2607;50.934;6.934;2022-10-16T05:28:29;14.90;99.90
5176;DHT22;2607;50.934;6.934;2022-10-16T05:30:56;14.90;99.90
5176;DHT22;2607;50.934;6.934;2022-10-16T05:33:22;14.90;99.90
5176;DHT22;2607;50.934;6.934;2022-10-16T05:35:48;14.90;99.90
5176;DHT22;2607;50.934;6.934;2022-10-16T05:38:15;14.90;99.90
5176;DHT22;2607;50.934;6.934;2022-10-16T05:40:41;14.90;99.90
5176;DHT22;2607;50.934;6.934;2022-10-16T05:43:06;14.90;99.90
5176;DHT22;2607;50.934;6.934;2022-10-16T05:45:32;14.90;99.90
5176;DHT22;2607;50.934;6.934;2022-10-16T05:47:57;14.90;99.90
5176;DHT22;2607;50.934;6.934;2022-10-16T05:50:23;14.90;99.90
5176;DHT22;2607;50.934;6.934;2022-10-16T05:52:48;14.90;99.90
5176;DHT22;2607;50.934;6.934;2022-10-16T05:55:14;14.90;99.90
5176;DHT22;2607;50.934;6.934;2022-10-16T05:57:40;14.80;99.90
5176;DHT22;2607;50.934;6.934;2022-10-16T06:00:06;14.90;99.90
5176;DHT22;2607;50.934;6.934;2022-10-16T06:02:32;14.80;99.90
5176;DHT22;2607;50.934;6.934;2022-10-16T06:04:57;14.80;99.90
5176;DHT22;2607;50.934;6.934;2022-10-16T06:07:23;14.80;99.90
5176;DHT22;2607;50.934;6.934;2022-10-16T06:09:53;14.80;99.90
5176;DHT22;2607;50.934;6.934;2022-10-16T06:12:18;14.80;99.90
5176;DHT22;2607;50.934;6.934;2022-10-16T06:14:45;14.80;99.90
5176;DHT22;2607;50.934;6.934;2022-10-16T06:17:13;14.80;99.90
5176;DHT22;2607;50.934;6.934;2022-10-16T06:19:39;14.80;99.90
5176;DHT22;2607;50.934;6.934;2022-10-16T06:22:04;14.70;99.90
5176;DHT22;2607;50.934;6.934;2022-10-16T06:24:30;14.70;99.90
5176;DHT22;2607;50.934;6.934;2022-10-16T06:26:56;14.70;99.90
5176;DHT22;2607;50.934;6.934;2022-10-16T06:29:21;14.80;99.90
5176;DHT22;2607;50.934;6.934;2022-10-16T06:31:47;14.80;99.90
5176;DHT22;2607;50.934;6.934;2022-10-16T06:34:12;14.80;99.90
5176;DHT22;2607;50.934;6.934;2022-10-16T06:36:38;14.80;99.90
5176;DHT22;2607;50.934;6.934;2022-10-16T06:39:05;14.80;99.90
5176;DHT22;2607;50.934;6.934;2022-10-16T06:41:33;14.90;99.90
5176;DHT22;2607;50.934;6.934;2022-10-16T06:43:58;14.90;99.90
5176;DHT22;2607;50.934;6.934;2022-10-16T06:46:25;14.90;99.90
5176;DHT22;2607;50.934;6.934;2022-10-16T06:48:50;15.00;99.90
5176;DHT22;2607;50.934;6.934;2022-10-16T06:51:18;15.00;99.90
5176;DHT22;2607;50.934;6.934;2022-10-16T06:53:54;15.00;99.90
5176;DHT22;2607;50.934;6.934;2022-10-16T06:56:26;15.10;99.90
5176;DHT22;2607;50.934;6.934;2022-10-16T06:58:52;15.10;99.90
5176;DHT22;2607;50.934;6.934;2022-10-16T07:01:20;15.20;99.90
5176;DHT22;2607;50.934;6.934;2022-10-16T07:03:46;15.20;99.90
5176;DHT22;2607;50.934;6.934;2022-10-16T07:06:15;15.20;99.90
5176;DHT22;2607;50.934;6.934;2022-10-16T07:08:43;15.30;99.90
5176;DHT22;2607;50.934;6.934;2022-10-16T07:11:11;15.30;99.90
5176;DHT22;2607;50.934;6.934;2022-10-16T07:13:37;15.40;99.90
5176;DHT22;2607;50.934;6.934;2022-10-16T07:16:07;15.40;99.90
5176;DHT22;2607;50.934;6.934;2022-10-16T07:18:33;15.50;99.90
5176;DHT22;2607;50.934;6.934;2022-10-16T07:21:10;15.50;99.90
5176;DHT22;2607;50.934;6.934;2022-10-16T07:23:37;15.50;99.90
5176;DHT22;2607;50.934;6.934;2022-10-16T07:26:04;15.50;99.90
5176;DHT22;2607;50.934;6.934;2022-10-16T07:28:30;15.50;99.90
5176;DHT22;2607;50.934;6.934;2022-10-16T07:31:00;15.50;99.90
5176;DHT22;2607;50.934;6.934;2022-10-16T07:33:26;15.60;99.90
5176;DHT22;2607;50.934;6.934;2022-10-16T07:35:53;15.60;99.90
5176;DHT22;2607;50.934;6.934;2022-10-16T07:38:20;15.60;99.90
5176;DHT22;2607;50.934;6.934;2022-10-16T07:40:46;15.60;99.90
5176;DHT22;2607;50.934;6.934;2022-10-16T07:43:13;15.60;99.90
5176;DHT22;2607;50.934;6.934;2022-10-16T07:45:47;15.60;99.90
5176;DHT22;2607;50.934;6.934;2022-10-16T07:48:13;15.60;99.90
5176;DHT22;2607;50.934;6.934;2022-10-16T07:50:39;15.50;99.90
5176;DHT22;2607;50.934;6.934;2022-10-16T07:53:04;15.50;99.90
5176;DHT22;2607;50.934;6.934;2022-10-16T07:55:30;15.40;99.90
5176;DHT22;2607;50.934;6.934;2022-10-16T07:57:55;15.50;99.90
5176;DHT22;2607;50.934;6.934;2022-10-16T08:00:21;15.40;99.90
5176;DHT22;2607;50.934;6.934;2022-10-16T08:02:46;15.40;99.90
5176;DHT22;2607;50.934;6.934;2022-10-16T08:05:12;15.40;99.90
5176;DHT22;2607;50.934;6.934;2022-10-16T08:07:38;15.40;99.90
5176;DHT22;2607;50.934;6.934;2022-10-16T08:10:03;15.40;99.90
5176;DHT22;2607;50.934;6.934;2022-10-16T08:12:29;15.30;99.90
5176;DHT22;2607;50.934;6.934;2022-10-16T08:14:55;15.40;99.90
5176;DHT22;2607;50.934;6.934;2022-10-16T08:17:20;15.40;99.90
5176;DHT22;2607;50.934;6.934;2022-10-16T08:19:47;15.40;99.90
5176;DHT22;2607;50.934;6.934;2022-10-16T08:22:13;15.40;99.90
5176;DHT22;2607;50.934;6.934;2022-10-16T08:24:39;15.40;99.90
5176;DHT22;2607;50.934;6.934;2022-10-16T08:27:05;15.50;99.90
5176;DHT22;2607;50.934;6.934;2022-10-16T08:29:31;15.50;99.90
5176;DHT22;2607;50.934;6.934;2022-10-16T08:31:56;15.60;99.90
5176;DHT22;2607;50.934;6.934;2022-10-16T08:34:22;15.60;99.90
5176;DHT22;2607;50.934;6.934;2022-10-16T08:36:47;15.60;99.90
5176;DHT22;2607;50.934;6.934;2022-10-16T08:39:13;15.70;99.90
5176;DHT22;2607;50.934;6.934;2022-10-16T08:47:13;15.70;99.90
5176;DHT22;2607;50.934;6.934;2022-10-16T08:49:43;15.70;99.90
5176;DHT22;2607;50.934;6.934;2022-10-16T08:52:13;15.70;99.90
5176;DHT22;2607;50.934;6.934;2022-10-16T08:54:43;15.70;99.90
5176;DHT22;2607;50.934;6.934;2022-10-16T08:57:15;15.80;99.90
5176;DHT22;2607;50.934;6.934;2022-10-16T08:59:42;15.80;99.90
5176;DHT22;2607;50.934;6.934;2022-10-16T09:02:23;15.80;99.90
5176;DHT22;2607;50.934;6.934;2022-10-16T09:08:03;15.90;99.90
5176;DHT22;2607;50.934;6.934;2022-10-16T09:21:31;16.00;99.90
5176;DHT22;2607;50.934;6.934;2022-10-16T09:24:16;16.10;99.90
5176;DHT22;2607;50.934;6.934;2022-10-16T09:26:44;16.10;99.90
5176;DHT22;2607;50.934;6.934;2022-10-16T09:29:15;16.10;99.90
5176;DHT22;2607;50.934;6.934;2022-10-16T09:31:41;16.10;99.90
5176;DHT22;2607;50.934;6.934;2022-10-16T09:36:47;16.20;99.90
5176;DHT22;2607;50.934;6.934;2022-10-16T09:39:12;16.20;99.90
5176;DHT22;2607;50.934;6.934;2022-10-16T09:41:43;16.30;99.90
5176;DHT22;2607;50.934;6.934;2022-10-16T09:44:26;16.30;99.90
5176;DHT22;2607;50.934;6.934;2022-10-16T09:47:03;16.30;99.90
5176;DHT22;2607;50.934;6.934;2022-10-16T09:49:29;16.30;99.90
5176;DHT22;2607;50.934;6.934;2022-10-16T09:52:12;16.30;99.90
5176;DHT22;2607;50.934;6.934;2022-10-16T09:54:37;16.40;99.90
5176;DHT22;2607;50.934;6.934;2022-10-16T09:57:13;16.50;99.90
5176;DHT22;2607;50.934;6.934;2022-10-16T09:59:55;16.50;99.90
5176;DHT22;2607;50.934;6.934;2022-10-16T10:02:34;16.50;99.90
5176;DHT22;2607;50.934;6.934;2022-10-16T10:05:04;16.60;99.90
5176;DHT22;2607;50.934;6.934;2022-10-16T10:07:33;16.70;99.90
5176;DHT22;2607;50.934;6.934;2022-10-16T10:10:03;16.70;99.90
5176;DHT22;2607;50.934;6.934;2022-10-16T10:12:33;16.80;99.90
5176;DHT22;2607;50.934;6.934;2022-10-16T10:15:07;16.90;99.90
5176;DHT22;2607;50.934;6.934;2022-10-16T10:17:49;16.90;99.90
5176;DHT22;2607;50.934;6.934;2022-10-16T10:20:21;16.90;99.90
5176;DHT22;2607;50.934;6.934;2022-10-16T10:22:47;16.90;99.90
5176;DHT22;2607;50.934;6.934;2022-10-16T10:47:18;17.40;99.90
5176;DHT22;2607;50.934;6.934;2022-10-16T10:49:53;17.50;99.90
5176;DHT22;2607;50.934;6.934;2022-10-16T10:55:10;17.60;99.90
5176;DHT22;2607;50.934;6.934;2022-10-16T10:57:55;17.70;99.90
5176;DHT22;2607;50.934;6.934;2022-10-16T11:08:55;18.10;99.90
5176;DHT22;2607;50.934;6.934;2022-10-16T11:11:31;18.20;99.90
5176;DHT22;2607;50.934;6.934;2022-10-16T11:19:49;18.30;99.90
5176;DHT22;2607;50.934;6.934;2022-10-16T11:22:18;18.30;99.90
5176;DHT22;2607;50.934;6.934;2022-10-16T11:27:52;18.30;99.90
5176;DHT22;2607;50.934;6.934;2022-10-16T11:30:25;18.80;99.90
5176;DHT22;2607;50.934;6.934;2022-10-16T11:38:14;21.70;96.40
5176;DHT22;2607;50.934;6.934;2022-10-16T11:40:41;21.90;94.20
5176;DHT22;2607;50.934;6.934;2022-10-16T11:43:42;21.60;94.40
5176;DHT22;2607;50.934;6.934;2022-10-16T11:46:15;21.20;94.80
5176;DHT22;2607;50.934;6.934;2022-10-16T11:51:38;20.60;96.20
5176;DHT22;2607;50.934;6.934;2022-10-16T11:57:15;20.20;96.90
5176;DHT22;2607;50.934;6.934;2022-10-16T12:00:05;20.20;97.40
5176;DHT22;2607;50.934;6.934;2022-10-16T12:05:33;20.10;97.40
5176;DHT22;2607;50.934;6.934;2022-10-16T12:08:10;20.20;97.30
5176;DHT22;2607;50.934;6.934;2022-10-16T12:10:37;20.50;96.80
5176;DHT22;2607;50.934;6.934;2022-10-16T12:13:28;20.90;96.40
5176;DHT22;2607;50.934;6.934;2022-10-16T12:18:40;21.20;94.70
5176;DHT22;2607;50.934;6.934;2022-10-16T12:21:06;21.00;94.60
5176;DHT22;2607;50.934;6.934;2022-10-16T12:23:37;20.90;94.60
5176;DHT22;2607;50.934;6.934;2022-10-16T12:26:04;20.70;94.90
5176;DHT22;2607;50.934;6.934;2022-10-16T12:28:32;20.60;95.30
5176;DHT22;2607;50.934;6.934;2022-10-16T12:31:06;20.50;95.50
5176;DHT22;2607;50.934;6.934;2022-10-16T12:33:41;20.40;95.60
5176;DHT22;2607;50.934;6.934;2022-10-16T12:36:15;20.30;95.80
5176;DHT22;2607;50.934;6.934;2022-10-16T12:38:47;20.20;95.80
5176;DHT22;2607;50.934;6.934;2022-10-16T12:43:52;20.10;96.20
5176;DHT22;2607;50.934;6.934;2022-10-16T12:48:44;20.00;96.30
5176;DHT22;2607;50.934;6.934;2022-10-16T13:02:17;19.60;97.30
5176;DHT22;2607;50.934;6.934;2022-10-16T13:10:55;19.50;97.50
5176;DHT22;2607;50.934;6.934;2022-10-16T13:13:40;19.60;97.70
5176;DHT22;2607;50.934;6.934;2022-10-16T13:16:45;19.60;97.50
5176;DHT22;2607;50.934;6.934;2022-10-16T13:25:10;19.70;97.40
5176;DHT22;2607;50.934;6.934;2022-10-16T13:30:21;19.70;97.40
5176;DHT22;2607;50.934;6.934;2022-10-16T13:32:58;19.70;97.70
5176;DHT22;2607;50.934;6.934;2022-10-16T13:35:26;19.70;97.90
5176;DHT22;2607;50.934;6.934;2022-10-16T13:38:11;19.70;98.00
5176;DHT22;2607;50.934;6.934;2022-10-16T13:40:55;19.70;97.90
5176;DHT22;2607;50.934;6.934;2022-10-16T13:43:38;19.70;98.00
5176;DHT22;2607;50.934;6.934;2022-10-16T13:46:15;19.70;98.00
5176;DHT22;2607;50.934;6.934;2022-10-16T13:48:41;19.70;98.00
5176;DHT22;2607;50.934;6.934;2022-10-16T13:51:13;19.70;98.10
5176;DHT22;2607;50.934;6.934;2022-10-16T13:53:40;19.70;98.20
5176;DHT22;2607;50.934;6.934;2022-10-16T13:56:12;19.70;98.20
5176;DHT22;2607;50.934;6.934;2022-10-16T13:58:38;19.70;98.30
5176;DHT22;2607;50.934;6.934;2022-10-16T14:01:11;19.60;98.20
5176;DHT22;2607;50.934;6.934;2022-10-16T14:03:41;19.60;98.40
5176;DHT22;2607;50.934;6.934;2022-10-16T14:06:15;19.60;98.60
5176;DHT22;2607;50.934;6.934;2022-10-16T14:11:48;19.70;98.80
5176;DHT22;2607;50.934;6.934;2022-10-16T14:14:14;19.70;98.80
5176;DHT22;2607;50.934;6.934;2022-10-16T14:16:42;19.70;98.90
5176;DHT22;2607;50.934;6.934;2022-10-16T14:19:35;19.70;98.80
5176;DHT22;2607;50.934;6.934;2022-10-16T14:22:01;19.70;98.90
5176;DHT22;2607;50.934;6.934;2022-10-16T14:26:56;19.70;99.10
5176;DHT22;2607;50.934;6.934;2022-10-16T14:29:23;19.60;99.20
5176;DHT22;2607;50.934;6.934;2022-10-16T14:32:20;19.60;99.30
5176;DHT22;2607;50.934;6.934;2022-10-16T14:34:53;19.50;99.40
5176;DHT22;2607;50.934;6.934;2022-10-16T14:37:29;19.50;99.70
5176;DHT22;2607;50.934;6.934;2022-10-16T14:39:56;19.50;99.90
5176;DHT22;2607;50.934;6.934;2022-10-16T14:42:24;19.40;99.90
5176;DHT22;2607;50.934;6.934;2022-10-16T14:44:51;19.40;99.90
5176;DHT22;2607;50.934;6.934;2022-10-16T14:47:23;19.40;99.90
5176;DHT22;2607;50.934;6.934;2022-10-16T14:49:52;19.40;99.90
5176;DHT22;2607;50.934;6.934;2022-10-16T14:52:20;19.40;99.90
5176;DHT22;2607;50.934;6.934;2022-10-16T14:54:49;19.40;99.90
5176;DHT22;2607;50.934;6.934;2022-10-16T14:57:20;19.40;99.90
5176;DHT22;2607;50.934;6.934;2022-10-16T14:59:48;19.40;99.90
5176;DHT22;2607;50.934;6.934;2022-10-16T15:02:34;19.40;99.90
5176;DHT22;2607;50.934;6.934;2022-10-16T15:05:21;19.40;99.90
5176;DHT22;2607;50.934;6.934;2022-10-16T15:07:50;19.40;99.90
5176;DHT22;2607;50.934;6.934;2022-10-16T15:10:17;19.30;99.90
5176;DHT22;2607;50.934;6.934;2022-10-16T15:12:43;19.30;99.90
5176;DHT22;2607;50.934;6.934;2022-10-16T15:17:50;19.30;99.90
5176;DHT22;2607;50.934;6.934;2022-10-16T15:20:19;19.20;99.90
5176;DHT22;2607;50.934;6.934;2022-10-16T15:22:45;19.20;99.90
5176;DHT22;2607;50.934;6.934;2022-10-16T15:28:07;19.20;99.90
5176;DHT22;2607;50.934;6.934;2022-10-16T15:30:34;19.20;99.90
5176;DHT22;2607;50.934;6.934;2022-10-16T15:33:00;19.10;99.90
5176;DHT22;2607;50.934;6.934;2022-10-16T15:35:26;19.10;99.90
5176;DHT22;2607;50.934;6.934;2022-10-16T15:37:51;19.10;99.90
5176;DHT22;2607;50.934;6.934;2022-10-16T15:40:18;19.10;99.90
5176;DHT22;2607;50.934;6.934;2022-10-16T15:42:44;19.00;99.90
5176;DHT22;2607;50.934;6.934;2022-10-16T15:45:10;19.00;99.90
5176;DHT22;2607;50.934;6.934;2022-10-16T15:47:36;19.00;99.90
5176;DHT22;2607;50.934;6.934;2022-10-16T15:50:03;19.00;99.90
5176;DHT22;2607;50.934;6.934;2022-10-16T15:52:29;19.00;99.90
5176;DHT22;2607;50.934;6.934;2022-10-16T15:54:57;19.00;99.90
5176;DHT22;2607;50.934;6.934;2022-10-16T15:57:22;19.00;99.90
5176;DHT22;2607;50.934;6.934;2022-10-16T15:59:49;19.00;99.90
5176;DHT22;2607;50.934;6.934;2022-10-16T16:02:15;19.00;99.90
5176;DHT22;2607;50.934;6.934;2022-10-16T16:04:41;19.00;99.90
5176;DHT22;2607;50.934;6.934;2022-10-16T16:07:06;19.00;99.90
5176;DHT22;2607;50.934;6.934;2022-10-16T16:09:35;18.90;99.90
5176;DHT22;2607;50.934;6.934;2022-10-16T16:12:00;18.90;99.90
5176;DHT22;2607;50.934;6.934;2022-10-16T16:14:27;18.90;99.90
5176;DHT22;2607;50.934;6.934;2022-10-16T16:16:56;18.90;99.90
5176;DHT22;2607;50.934;6.934;2022-10-16T16:19:22;18.90;99.90
5176;DHT22;2607;50.934;6.934;2022-10-16T16:21:49;18.80;99.90
5176;DHT22;2607;50.934;6.934;2022-10-16T16:24:14;18.80;99.90
5176;DHT22;2607;50.934;6.934;2022-10-16T16:26:40;18.80;99.90
5176;DHT22;2607;50.934;6.934;2022-10-16T16:29:12;18.80;99.90
5176;DHT22;2607;50.934;6.934;2022-10-16T16:31:38;18.80;99.90
5176;DHT22;2607;50.934;6.934;2022-10-16T16:34:04;18.70;99.90
5176;DHT22;2607;50.934;6.934;2022-10-16T16:36:30;18.70;99.90
5176;DHT22;2607;50.934;6.934;2022-10-16T16:38:56;18.70;99.90
5176;DHT22;2607;50.934;6.934;2022-10-16T16:41:24;18.70;99.90
5176;DHT22;2607;50.934;6.934;2022-10-16T16:43:51;18.70;99.90
5176;DHT22;2607;50.934;6.934;2022-10-16T16:46:17;18.70;99.90
5176;DHT22;2607;50.934;6.934;2022-10-16T16:48:42;18.60;99.90
5176;DHT22;2607;50.934;6.934;2022-10-16T16:51:13;18.60;99.90
5176;DHT22;2607;50.934;6.934;2022-10-16T16:53:41;18.70;99.90
5176;DHT22;2607;50.934;6.934;2022-10-16T16:56:07;18.60;99.90
5176;DHT22;2607;50.934;6.934;2022-10-16T16:58:33;18.60;99.90
5176;DHT22;2607;50.934;6.934;2022-10-16T17:01:00;18.60;99.90
5176;DHT22;2607;50.934;6.934;2022-10-16T17:03:31;18.60;99.90
5176;DHT22;2607;50.934;6.934;2022-10-16T17:06:03;18.60;99.90
5176;DHT22;2607;50.934;6.934;2022-10-16T17:08:29;18.50;99.90
5176;DHT22;2607;50.934;6.934;2022-10-16T17:10:56;18.50;99.90
5176;DHT22;2607;50.934;6.934;2022-10-16T17:13:27;18.50;99.90
5176;DHT22;2607;50.934;6.934;2022-10-16T17:15:53;18.50;99.90
5176;DHT22;2607;50.934;6.934;2022-10-16T17:18:20;18.50;99.90
5176;DHT22;2607;50.934;6.934;2022-10-16T17:20:46;18.50;99.90
5176;DHT22;2607;50.934;6.934;2022-10-16T17:23:13;18.50;99.90
5176;DHT22;2607;50.934;6.934;2022-10-16T17:25:40;18.50;99.90
5176;DHT22;2607;50.934;6.934;2022-10-16T17:28:08;18.50;99.90
5176;DHT22;2607;50.934;6.934;2022-10-16T17:30:36;18.50;99.90
5176;DHT22;2607;50.934;6.934;2022-10-16T17:33:03;18.50;99.90
5176;DHT22;2607;50.934;6.934;2022-10-16T17:35:29;18.50;99.90
5176;DHT22;2607;50.934;6.934;2022-10-16T17:37:55;18.50;99.90
5176;DHT22;2607;50.934;6.934;2022-10-16T17:40:20;18.50;99.90
5176;DHT22;2607;50.934;6.934;2022-10-16T17:42:46;18.50;99.90
5176;DHT22;2607;50.934;6.934;2022-10-16T17:45:13;18.50;99.90
5176;DHT22;2607;50.934;6.934;2022-10-16T17:47:39;18.50;99.90
5176;DHT22;2607;50.934;6.934;2022-10-16T17:50:07;18.50;99.90
5176;DHT22;2607;50.934;6.934;2022-10-16T17:52:33;18.50;99.90
5176;DHT22;2607;50.934;6.934;2022-10-16T17:54:58;18.50;99.90
5176;DHT22;2607;50.934;6.934;2022-10-16T17:57:24;18.60;99.90
5176;DHT22;2607;50.934;6.934;2022-10-16T17:59:50;18.50;99.90
5176;DHT22;2607;50.934;6.934;2022-10-16T18:02:15;18.60;99.90
5176;DHT22;2607;50.934;6.934;2022-10-16T18:04:42;18.60;99.90
5176;DHT22;2607;50.934;6.934;2022-10-16T18:07:08;18.50;99.90
5176;DHT22;2607;50.934;6.934;2022-10-16T18:09:33;18.50;99.90
5176;DHT22;2607;50.934;6.934;2022-10-16T18:11:59;18.50;99.90
5176;DHT22;2607;50.934;6.934;2022-10-16T18:14:26;18.50;99.90
5176;DHT22;2607;50.934;6.934;2022-10-16T18:16:53;18.50;99.90
5176;DHT22;2607;50.934;6.934;2022-10-16T18:19:19;18.50;99.90
5176;DHT22;2607;50.934;6.934;2022-10-16T18:21:46;18.50;99.90
5176;DHT22;2607;50.934;6.934;2022-10-16T18:24:14;18.50;99.90
5176;DHT22;2607;50.934;6.934;2022-10-16T18:26:39;18.50;99.90